sensor_id;sensor_type;location;lat;lon;timestamp;pressure;altitude;pressure_sealevel;temperature;humidity
16544;BME280;8384;47.996;7.786;2023-04-25T00:00:14;98272.31;;;8.78;69.06
16544;BME280;8384;47.996;7.786;2023-04-25T00:02:39;98260.22;;;8.68;68.50
16544;BME280;8384;47.996;7.786;2023-04-25T00:05:05;98254.69;;;8.53;69.41
16544;BME280;8384;47.996;7.786;2023-04-25T00:07:30;98281.19;;;8.63;70.24
16544;BME280;8384;47.996;7.786;2023-04-25T00:09:57;98268.69;;;8.67;69.32
16544;BME280;8384;47.996;7.786;2023-04-25T00:12:22;98270.75;;;8.54;69.86
16544;BME280;8384;47.996;7.786;2023-04-25T00:14:48;98276.97;;;8.50;70.20
16544;BME280;8384;47.996;7.786;2023-04-25T00:17:15;98275.34;;;8.87;70.04
16544;BME280;8384;47.996;7.786;2023-04-25T00:19:41;98273.03;;;8.68;70.41
16544;BME280;8384;47.996;7.786;2023-04-25T00:22:06;98278.63;;;8.51;71.57
16544;BME280;8384;47.996;7.786;2023-04-25T00:24:32;98254.03;;;8.46;71.68
16544;BME280;8384;47.996;7.786;2023-04-25T00:26:57;98295.41;;;8.70;71.93
16544;BME280;8384;47.996;7.786;2023-04-25T00:29:22;98289.13;;;8.69;72.33
16544;BME280;8384;47.996;7.786;2023-04-25T00:31:48;98289.19;;;8.47;72.79
16544;BME280;8384;47.996;7.786;2023-04-25T00:34:13;98281.59;;;8.49;73.60
16544;BME280;8384;47.996;7.786;2023-04-25T00:36:38;98264.31;;;8.38;73.89
16544;BME280;8384;47.996;7.786;2023-04-25T00:39:04;98266.75;;;8.67;73.76
16544;BME280;8384;47.996;7.786;2023-04-25T00:41:29;98252.09;;;8.74;72.61
16544;BME280;8384;47.996;7.786;2023-04-25T00:43:55;98231.28;;;8.30;75.13
16544;BME280;8384;47.996;7.786;2023-04-25T00:46:21;98259.53;;;8.23;76.13
16544;BME280;8384;47.996;7.786;2023-04-25T00:48:47;98256.84;;;8.51;74.53
16544;BME280;8384;47.996;7.786;2023-04-25T00:51:16;98265.88;;;8.29;75.99
16544;BME280;8384;47.996;7.786;2023-04-25T00:53:42;98268.72;;;8.12;76.97
16544;BME280;8384;47.996;7.786;2023-04-25T00:56:07;98260.38;;;7.96;78.13
16544;BME280;8384;47.996;7.786;2023-04-25T00:58:33;98232.44;;;7.79;78.29
16544;BME280;8384;47.996;7.786;2023-04-25T01:00:58;98242.34;;;8.18;77.03
16544;BME280;8384;47.996;7.786;2023-04-25T01:03:24;98248.81;;;8.11;77.83
16544;BME280;8384;47.996;7.786;2023-04-25T01:05:49;98241.50;;;8.12;77.77
16544;BME280;8384;47.996;7.786;2023-04-25T01:08:15;98246.38;;;8.10;77.97
16544;BME280;8384;47.996;7.786;2023-04-25T01:10:41;98243.75;;;8.20;77.80
16544;BME280;8384;47.996;7.786;2023-04-25T01:13:06;98239.63;;;8.18;77.91
16544;BME280;8384;47.996;7.786;2023-04-25T01:15:31;98243.75;;;8.20;77.43
16544;BME280;8384;47.996;7.786;2023-04-25T01:17:57;98236.56;;;8.09;78.49
16544;BME280;8384;47.996;7.786;2023-04-25T01:20:23;98230.22;;;8.31;78.00
16544;BME280;8384;47.996;7.786;2023-04-25T01:22:50;98229.75;;;8.11;78.64
16544;BME280;8384;47.996;7.786;2023-04-25T01:25:16;98217.38;;;7.93;79.48
16544;BME280;8384;47.996;7.786;2023-04-25T01:27:42;98228.97;;;8.11;79.07
16544;BME280;8384;47.996;7.786;2023-04-25T01:30:08;98223.75;;;8.09;78.65
16544;BME280;8384;47.996;7.786;2023-04-25T01:32:33;98224.47;;;8.27;78.25
16544;BME280;8384;47.996;7.786;2023-04-25T01:35:04;98205.44;;;8.00;78.38
16544;BME280;8384;47.996;7.786;2023-04-25T01:37:35;98223.56;;;7.89;79.53
16544;BME280;8384;47.996;7.786;2023-04-25T01:40:01;98218.00;;;8.06;79.17
16544;BME280;8384;47.996;7.786;2023-04-25T01:42:26;98223.75;;;8.09;78.26
16544;BME280;8384;47.996;7.786;2023-04-25T01:44:52;98199.94;;;7.67;80.14
16544;BME280;8384;47.996;7.786;2023-04-25T01:47:17;98213.66;;;8.05;79.75
16544;BME280;8384;47.996;7.786;2023-04-25T01:49:43;98221.25;;;8.03;79.20
16544;BME280;8384;47.996;7.786;2023-04-25T01:52:08;98195.03;;;7.91;79.52
16544;BME280;8384;47.996;7.786;2023-04-25T01:54:33;98213.34;;;8.01;78.83
16544;BME280;8384;47.996;7.786;2023-04-25T01:56:58;98217.63;;;8.24;77.73
16544;BME280;8384;47.996;7.786;2023-04-25T01:59:24;98211.03;;;8.15;78.53
16544;BME280;8384;47.996;7.786;2023-04-25T02:01:50;98214.91;;;8.24;77.74
16544;BME280;8384;47.996;7.786;2023-04-25T02:04:15;98201.13;;;8.04;78.41
16544;BME280;8384;47.996;7.786;2023-04-25T02:06:41;98180.75;;;8.06;76.81
16544;BME280;8384;47.996;7.786;2023-04-25T02:09:06;98184.94;;;7.92;78.79
16544;BME280;8384;47.996;7.786;2023-04-25T02:11:31;98192.16;;;8.03;78.43
16544;BME280;8384;47.996;7.786;2023-04-25T02:13:56;98204.84;;;8.25;77.05
16544;BME280;8384;47.996;7.786;2023-04-25T02:16:22;98218.59;;;8.08;77.49
16544;BME280;8384;47.996;7.786;2023-04-25T02:18:47;98195.84;;;7.92;77.67
16544;BME280;8384;47.996;7.786;2023-04-25T02:21:12;98207.56;;;8.25;77.11
16544;BME280;8384;47.996;7.786;2023-04-25T02:23:38;98204.34;;;8.28;75.75
16544;BME280;8384;47.996;7.786;2023-04-25T02:26:03;98210.81;;;8.22;75.88
16544;BME280;8384;47.996;7.786;2023-04-25T02:28:28;98203.22;;;8.24;76.69
16544;BME280;8384;47.996;7.786;2023-04-25T02:30:54;98189.16;;;8.05;77.27
16544;BME280;8384;47.996;7.786;2023-04-25T02:33:19;98192.09;;;7.98;77.99
16544;BME280;8384;47.996;7.786;2023-04-25T02:35:46;98191.41;;;8.13;76.69
16544;BME280;8384;47.996;7.786;2023-04-25T02:38:11;98197.16;;;8.49;75.69
16544;BME280;8384;47.996;7.786;2023-04-25T02:40:36;98172.50;;;8.34;75.64
16544;BME280;8384;47.996;7.786;2023-04-25T02:43:01;98199.78;;;8.39;75.68
16544;BME280;8384;47.996;7.786;2023-04-25T02:45:27;98176.78;;;8.19;75.97
16544;BME280;8384;47.996;7.786;2023-04-25T02:47:52;98184.56;;;8.10;77.15
16544;BME280;8384;47.996;7.786;2023-04-25T02:50:17;98183.19;;;8.08;77.52
16544;BME280;8384;47.996;7.786;2023-04-25T02:52:43;98182.59;;;8.33;75.83
16544;BME280;8384;47.996;7.786;2023-04-25T02:55:08;98187.91;;;8.18;76.61
16544;BME280;8384;47.996;7.786;2023-04-25T02:57:34;98175.94;;;8.19;76.50
16544;BME280;8384;47.996;7.786;2023-04-25T02:59:59;98185.44;;;8.16;76.15
16544;BME280;8384;47.996;7.786;2023-04-25T03:02:24;98184.06;;;8.14;75.89
16544;BME280;8384;47.996;7.786;2023-04-25T03:04:50;98170.00;;;8.27;75.79
16544;BME280;8384;47.996;7.786;2023-04-25T03:07:15;98174.50;;;8.44;75.26
16544;BME280;8384;47.996;7.786;2023-04-25T03:09:40;98126.13;;;8.23;74.01
16544;BME280;8384;47.996;7.786;2023-04-25T03:12:05;98172.59;;;8.44;74.92
16544;BME280;8384;47.996;7.786;2023-04-25T03:14:31;98166.78;;;8.35;74.80
16544;BME280;8384;47.996;7.786;2023-04-25T03:16:56;98172.78;;;8.37;74.76
16544;BME280;8384;47.996;7.786;2023-04-25T03:19:21;98172.78;;;8.32;74.46
16544;BME280;8384;47.996;7.786;2023-04-25T03:21:47;98162.47;;;8.39;75.25
16544;BME280;8384;47.996;7.786;2023-04-25T03:24:12;98164.63;;;8.37;73.85
16544;BME280;8384;47.996;7.786;2023-04-25T03:26:38;98157.69;;;8.52;73.00
16544;BME280;8384;47.996;7.786;2023-04-25T03:29:03;98123.81;;;8.43;72.52
16544;BME280;8384;47.996;7.786;2023-04-25T03:31:28;98151.53;;;8.29;73.03
16544;BME280;8384;47.996;7.786;2023-04-25T03:33:53;98143.97;;;8.41;72.53
16544;BME280;8384;47.996;7.786;2023-04-25T03:36:19;98142.31;;;8.40;72.53
16544;BME280;8384;47.996;7.786;2023-04-25T03:38:44;98138.06;;;8.50;72.65
16544;BME280;8384;47.996;7.786;2023-04-25T03:41:09;98128.16;;;8.38;72.80
16544;BME280;8384;47.996;7.786;2023-04-25T03:43:34;98125.41;;;8.38;71.71
16544;BME280;8384;47.996;7.786;2023-04-25T03:46:00;98126.94;;;8.19;73.49
16544;BME280;8384;47.996;7.786;2023-04-25T03:48:26;98080.97;;;7.90;73.11
16544;BME280;8384;47.996;7.786;2023-04-25T03:50:52;98117.88;;;8.08;73.38
16544;BME280;8384;47.996;7.786;2023-04-25T03:53:17;98097.16;;;8.07;72.68
16544;BME280;8384;47.996;7.786;2023-04-25T03:55:43;98116.91;;;7.92;73.18
16544;BME280;8384;47.996;7.786;2023-04-25T03:58:08;98087.00;;;7.92;72.24
16544;BME280;8384;47.996;7.786;2023-04-25T04:00:34;98095.94;;;7.87;72.82
16544;BME280;8384;47.996;7.786;2023-04-25T04:02:59;98091.34;;;7.93;72.32
16544;BME280;8384;47.996;7.786;2023-04-25T04:05:25;98101.53;;;8.08;72.33
16544;BME280;8384;47.996;7.786;2023-04-25T04:07:50;98084.63;;;8.06;72.03
16544;BME280;8384;47.996;7.786;2023-04-25T04:10:15;98087.72;;;7.82;73.48
16544;BME280;8384;47.996;7.786;2023-04-25T04:12:40;98112.38;;;8.03;73.23
16544;BME280;8384;47.996;7.786;2023-04-25T04:15:06;98110.22;;;8.05;73.21
16544;BME280;8384;47.996;7.786;2023-04-25T04:17:32;98104.78;;;8.05;73.15
16544;BME280;8384;47.996;7.786;2023-04-25T04:19:57;98105.63;;;8.10;73.92
16544;BME280;8384;47.996;7.786;2023-04-25T04:22:23;98100.16;;;8.05;74.24
16544;BME280;8384;47.996;7.786;2023-04-25T04:24:49;98109.41;;;8.04;73.72
16544;BME280;8384;47.996;7.786;2023-04-25T04:27:18;98105.78;;;7.93;74.86
16544;BME280;8384;47.996;7.786;2023-04-25T04:29:44;98096.69;;;7.83;74.59
16544;BME280;8384;47.996;7.786;2023-04-25T04:32:10;98112.00;;;7.89;74.22
16544;BME280;8384;47.996;7.786;2023-04-25T04:34:35;98110.56;;;7.81;75.31
16544;BME280;8384;47.996;7.786;2023-04-25T04:37:01;98115.31;;;7.96;74.98
16544;BME280;8384;47.996;7.786;2023-04-25T04:39:26;98109.38;;;7.99;74.54
16544;BME280;8384;47.996;7.786;2023-04-25T04:41:51;98116.44;;;8.00;74.18
16544;BME280;8384;47.996;7.786;2023-04-25T04:44:17;98117.47;;;7.94;75.25
16544;BME280;8384;47.996;7.786;2023-04-25T04:46:43;98117.69;;;8.20;73.39
16544;BME280;8384;47.996;7.786;2023-04-25T04:49:09;98118.84;;;7.91;75.12
16544;BME280;8384;47.996;7.786;2023-04-25T04:51:35;98117.72;;;8.25;74.25
16544;BME280;8384;47.996;7.786;2023-04-25T04:54:02;98119.97;;;8.01;74.90
16544;BME280;8384;47.996;7.786;2023-04-25T04:56:31;98129.88;;;8.12;74.42
16544;BME280;8384;47.996;7.786;2023-04-25T04:58:57;98120.91;;;8.17;73.63
16544;BME280;8384;47.996;7.786;2023-04-25T05:01:23;98111.47;;;8.30;72.87
16544;BME280;8384;47.996;7.786;2023-04-25T05:03:48;98133.59;;;8.38;73.30
16544;BME280;8384;47.996;7.786;2023-04-25T05:06:14;98127.91;;;8.40;74.24
16544;BME280;8384;47.996;7.786;2023-04-25T05:08:39;98140.25;;;8.15;75.95
16544;BME280;8384;47.996;7.786;2023-04-25T05:11:04;98120.72;;;7.91;77.24
16544;BME280;8384;47.996;7.786;2023-04-25T05:13:30;98151.00;;;8.00;79.25
16544;BME280;8384;47.996;7.786;2023-04-25T05:15:55;98152.75;;;7.78;81.74
16544;BME280;8384;47.996;7.786;2023-04-25T05:18:20;98168.81;;;7.58;83.84
16544;BME280;8384;47.996;7.786;2023-04-25T05:20:46;98165.25;;;7.30;88.99
16544;BME280;8384;47.996;7.786;2023-04-25T05:23:11;98152.56;;;6.91;92.67
16544;BME280;8384;47.996;7.786;2023-04-25T05:25:36;98183.28;;;6.92;95.53
16544;BME280;8384;47.996;7.786;2023-04-25T05:28:01;98147.63;;;6.66;97.08
16544;BME280;8384;47.996;7.786;2023-04-25T05:30:27;98168.31;;;6.50;99.73
16544;BME280;8384;47.996;7.786;2023-04-25T05:32:52;98172.50;;;6.40;100.00
16544;BME280;8384;47.996;7.786;2023-04-25T05:35:17;98170.44;;;6.48;100.00
16544;BME280;8384;47.996;7.786;2023-04-25T05:37:43;98179.09;;;6.27;100.00
16544;BME280;8384;47.996;7.786;2023-04-25T05:40:08;98157.75;;;5.85;100.00
16544;BME280;8384;47.996;7.786;2023-04-25T05:42:34;98154.06;;;5.74;100.00
16544;BME280;8384;47.996;7.786;2023-04-25T05:45:00;98182.00;;;5.92;100.00
16544;BME280;8384;47.996;7.786;2023-04-25T05:47:26;98179.22;;;5.58;100.00
16544;BME280;8384;47.996;7.786;2023-04-25T05:49:51;98176.38;;;5.64;100.00
16544;BME280;8384;47.996;7.786;2023-04-25T05:52:16;98193.19;;;5.78;100.00
16544;BME280;8384;47.996;7.786;2023-04-25T05:54:41;98161.88;;;5.42;100.00
16544;BME280;8384;47.996;7.786;2023-04-25T05:57:07;98196.47;;;5.51;100.00
16544;BME280;8384;47.996;7.786;2023-04-25T05:59:32;98192.78;;;5.29;100.00
16544;BME280;8384;47.996;7.786;2023-04-25T06:01:57;98180.69;;;5.19;100.00
16544;BME280;8384;47.996;7.786;2023-04-25T06:04:23;98211.00;;;5.45;100.00
16544;BME280;8384;47.996;7.786;2023-04-25T06:06:48;98202.75;;;5.40;100.00
16544;BME280;8384;47.996;7.786;2023-04-25T06:09:13;98216.66;;;5.32;100.00
16544;BME280;8384;47.996;7.786;2023-04-25T06:11:39;98235.78;;;5.25;100.00
16544;BME280;8384;47.996;7.786;2023-04-25T06:14:05;98234.13;;;5.24;100.00
16544;BME280;8384;47.996;7.786;2023-04-25T06:16:30;98232.34;;;5.42;100.00
16544;BME280;8384;47.996;7.786;2023-04-25T06:18:56;98238.63;;;5.18;100.00
16544;BME280;8384;47.996;7.786;2023-04-25T06:21:21;98236.44;;;5.44;100.00
16544;BME280;8384;47.996;7.786;2023-04-25T06:23:46;98245.94;;;5.30;100.00
16544;BME280;8384;47.996;7.786;2023-04-25T06:26:11;98216.50;;;5.09;100.00
16544;BME280;8384;47.996;7.786;2023-04-25T06:28:37;98221.66;;;5.23;100.00
16544;BME280;8384;47.996;7.786;2023-04-25T06:31:02;98239.09;;;5.27;100.00
16544;BME280;8384;47.996;7.786;2023-04-25T06:33:27;98247.78;;;5.29;100.00
16544;BME280;8384;47.996;7.786;2023-04-25T06:35:53;98223.78;;;5.21;100.00
16544;BME280;8384;47.996;7.786;2023-04-25T06:38:18;98248.47;;;5.48;100.00
16544;BME280;8384;47.996;7.786;2023-04-25T06:40:44;98243.69;;;5.27;100.00
16544;BME280;8384;47.996;7.786;2023-04-25T06:43:09;98252.94;;;5.54;100.00
16544;BME280;8384;47.996;7.786;2023-04-25T06:45:34;98242.41;;;5.58;100.00
16544;BME280;8384;47.996;7.786;2023-04-25T06:48:00;98243.53;;;5.45;100.00
16544;BME280;8384;47.996;7.786;2023-04-25T06:50:25;98233.25;;;5.47;100.00
16544;BME280;8384;47.996;7.786;2023-04-25T06:52:50;98224.44;;;5.40;100.00
16544;BME280;8384;47.996;7.786;2023-04-25T06:55:15;98263.84;;;5.60;100.00
16544;BME280;8384;47.996;7.786;2023-04-25T06:57:41;98270.84;;;5.55;100.00
16544;BME280;8384;47.996;7.786;2023-04-25T07:00:06;98269.38;;;5.65;100.00
16544;BME280;8384;47.996;7.786;2023-04-25T07:02:34;98289.91;;;5.61;100.00
16544;BME280;8384;47.996;7.786;2023-04-25T07:04:59;98282.16;;;5.52;100.00
16544;BME280;8384;47.996;7.786;2023-04-25T07:07:26;98286.97;;;5.62;100.00
16544;BME280;8384;47.996;7.786;2023-04-25T07:09:51;98259.34;;;5.36;100.00
16544;BME280;8384;47.996;7.786;2023-04-25T07:12:16;98296.03;;;5.68;100.00
16544;BME280;8384;47.996;7.786;2023-04-25T07:14:41;98295.94;;;5.51;100.00
16544;BME280;8384;47.996;7.786;2023-04-25T07:17:07;98269.31;;;5.48;100.00
16544;BME280;8384;47.996;7.786;2023-04-25T07:19:32;98291.59;;;5.50;100.00
16544;BME280;8384;47.996;7.786;2023-04-25T07:21:58;98310.03;;;5.77;100.00
16544;BME280;8384;47.996;7.786;2023-04-25T07:24:23;98315.09;;;5.73;100.00
16544;BME280;8384;47.996;7.786;2023-04-25T07:26:48;98308.03;;;5.72;100.00
16544;BME280;8384;47.996;7.786;2023-04-25T07:29:14;98291.81;;;5.60;100.00
16544;BME280;8384;47.996;7.786;2023-04-25T07:31:39;98317.47;;;5.69;100.00
16544;BME280;8384;47.996;7.786;2023-04-25T07:34:04;98307.13;;;5.66;100.00
16544;BME280;8384;47.996;7.786;2023-04-25T07:36:31;98322.22;;;5.62;100.00
16544;BME280;8384;47.996;7.786;2023-04-25T07:38:56;98315.91;;;5.74;100.00
16544;BME280;8384;47.996;7.786;2023-04-25T07:41:21;98333.09;;;5.91;100.00
16544;BME280;8384;47.996;7.786;2023-04-25T07:43:47;98334.00;;;6.09;100.00
16544;BME280;8384;47.996;7.786;2023-04-25T07:46:12;98338.94;;;6.12;100.00
16544;BME280;8384;47.996;7.786;2023-04-25T07:48:37;98325.19;;;6.02;100.00
16544;BME280;8384;47.996;7.786;2023-04-25T07:51:03;98352.38;;;6.19;100.00
16544;BME280;8384;47.996;7.786;2023-04-25T07:53:30;98330.75;;;5.83;100.00
16544;BME280;8384;47.996;7.786;2023-04-25T07:55:56;98358.09;;;6.05;100.00
16544;BME280;8384;47.996;7.786;2023-04-25T07:58:21;98342.06;;;5.92;100.00
16544;BME280;8384;47.996;7.786;2023-04-25T08:00:47;98322.91;;;5.98;100.00
16544;BME280;8384;47.996;7.786;2023-04-25T08:03:13;98322.19;;;6.15;100.00
16544;BME280;8384;47.996;7.786;2023-04-25T08:05:38;98344.38;;;6.41;100.00
16544;BME280;8384;47.996;7.786;2023-04-25T08:08:03;98373.28;;;6.64;100.00
16544;BME280;8384;47.996;7.786;2023-04-25T08:10:31;98371.59;;;6.75;100.00
16544;BME280;8384;47.996;7.786;2023-04-25T08:12:56;98361.88;;;6.50;100.00
16544;BME280;8384;47.996;7.786;2023-04-25T08:15:22;98358.81;;;6.93;100.00
16544;BME280;8384;47.996;7.786;2023-04-25T08:17:47;98373.13;;;6.71;100.00
16544;BME280;8384;47.996;7.786;2023-04-25T08:20:12;98364.13;;;6.53;100.00
16544;BME280;8384;47.996;7.786;2023-04-25T08:22:38;98364.19;;;6.41;100.00
16544;BME280;8384;47.996;7.786;2023-04-25T08:25:03;98402.91;;;6.66;100.00
16544;BME280;8384;47.996;7.786;2023-04-25T08:27:29;98408.25;;;6.60;100.00
16544;BME280;8384;47.996;7.786;2023-04-25T08:29:54;98413.09;;;7.04;100.00
16544;BME280;8384;47.996;7.786;2023-04-25T08:32:20;98401.91;;;7.01;100.00
16544;BME280;8384;47.996;7.786;2023-04-25T08:34:46;98408.78;;;6.74;100.00
16544;BME280;8384;47.996;7.786;2023-04-25T08:37:12;98389.78;;;6.92;100.00
16544;BME280;8384;47.996;7.786;2023-04-25T08:39:37;98396.19;;;6.85;100.00
16544;BME280;8384;47.996;7.786;2023-04-25T08:42:06;98405.56;;;6.78;100.00
16544;BME280;8384;47.996;7.786;2023-04-25T08:44:35;98400.81;;;6.85;100.00
16544;BME280;8384;47.996;7.786;2023-04-25T08:47:04;98419.50;;;7.15;100.00
16544;BME280;8384;47.996;7.786;2023-04-25T08:49:31;98417.69;;;7.21;100.00
16544;BME280;8384;47.996;7.786;2023-04-25T08:52:00;98437.06;;;7.08;100.00
16544;BME280;8384;47.996;7.786;2023-04-25T08:54:26;98426.66;;;6.87;100.00
16544;BME280;8384;47.996;7.786;2023-04-25T08:56:55;98425.50;;;6.83;100.00
16544;BME280;8384;47.996;7.786;2023-04-25T08:59:23;98440.34;;;7.10;100.00
16544;BME280;8384;47.996;7.786;2023-04-25T09:01:49;98441.16;;;7.27;100.00
16544;BME280;8384;47.996;7.786;2023-04-25T09:04:15;98444.13;;;7.43;100.00
16544;BME280;8384;47.996;7.786;2023-04-25T09:06:40;98433.59;;;7.29;100.00
16544;BME280;8384;47.996;7.786;2023-04-25T09:09:08;98425.19;;;7.31;100.00
16544;BME280;8384;47.996;7.786;2023-04-25T09:11:35;98439.53;;;7.43;100.00
16544;BME280;8384;47.996;7.786;2023-04-25T09:14:14;98435.91;;;7.38;100.00
16544;BME280;8384;47.996;7.786;2023-04-25T09:19:25;98455.00;;;7.60;100.00
16544;BME280;8384;47.996;7.786;2023-04-25T09:21:54;98468.75;;;7.70;100.00
16544;BME280;8384;47.996;7.786;2023-04-25T09:24:30;98456.81;;;7.71;100.00
16544;BME280;8384;47.996;7.786;2023-04-25T09:26:56;98427.28;;;7.63;100.00
16544;BME280;8384;47.996;7.786;2023-04-25T09:29:29;98452.63;;;8.25;100.00
16544;BME280;8384;47.996;7.786;2023-04-25T09:32:10;98472.47;;;8.65;99.60
16544;BME280;8384;47.996;7.786;2023-04-25T09:34:43;98466.97;;;9.14;93.72
16544;BME280;8384;47.996;7.786;2023-04-25T09:37:10;98477.50;;;9.06;91.43
16544;BME280;8384;47.996;7.786;2023-04-25T09:39:37;98450.53;;;8.54;88.40
16544;BME280;8384;47.996;7.786;2023-04-25T09:42:03;98473.91;;;9.00;89.66
16544;BME280;8384;47.996;7.786;2023-04-25T09:44:29;98480.94;;;9.23;87.75
16544;BME280;8384;47.996;7.786;2023-04-25T09:46:54;98478.72;;;9.90;86.66
16544;BME280;8384;47.996;7.786;2023-04-25T09:49:20;98498.03;;;9.84;84.42
16544;BME280;8384;47.996;7.786;2023-04-25T09:51:58;98499.63;;;10.23;83.79
16544;BME280;8384;47.996;7.786;2023-04-25T09:54:25;98491.06;;;10.52;81.64
16544;BME280;8384;47.996;7.786;2023-04-25T09:56:52;98476.47;;;10.30;74.70
16544;BME280;8384;47.996;7.786;2023-04-25T09:59:20;98489.50;;;10.71;76.04
16544;BME280;8384;47.996;7.786;2023-04-25T10:01:48;98496.97;;;10.33;76.63
16544;BME280;8384;47.996;7.786;2023-04-25T10:04:18;98507.28;;;10.20;77.77
16544;BME280;8384;47.996;7.786;2023-04-25T10:06:45;98498.72;;;10.44;76.50
16544;BME280;8384;47.996;7.786;2023-04-25T10:09:11;98501.59;;;10.91;76.77
16544;BME280;8384;47.996;7.786;2023-04-25T10:11:38;98505.41;;;10.90;77.47
16544;BME280;8384;47.996;7.786;2023-04-25T10:14:04;98488.78;;;11.69;75.11
16544;BME280;8384;47.996;7.786;2023-04-25T10:16:30;98518.09;;;11.63;72.23
16544;BME280;8384;47.996;7.786;2023-04-25T10:18:56;98498.34;;;12.18;72.54
16544;BME280;8384;47.996;7.786;2023-04-25T10:21:21;98494.13;;;12.47;65.68
16544;BME280;8384;47.996;7.786;2023-04-25T10:23:47;98505.53;;;12.74;64.37
16544;BME280;8384;47.996;7.786;2023-04-25T10:26:13;98482.47;;;11.79;62.81
16544;BME280;8384;47.996;7.786;2023-04-25T10:29:03;98506.25;;;12.96;62.29
16544;BME280;8384;47.996;7.786;2023-04-25T10:31:31;98507.66;;;13.73;60.63
16544;BME280;8384;47.996;7.786;2023-04-25T10:33:59;98510.66;;;12.86;58.37
16544;BME280;8384;47.996;7.786;2023-04-25T10:36:24;98486.63;;;12.73;59.13
16544;BME280;8384;47.996;7.786;2023-04-25T10:38:52;98497.53;;;12.07;61.69
16544;BME280;8384;47.996;7.786;2023-04-25T10:41:19;98490.66;;;12.15;63.55
16544;BME280;8384;47.996;7.786;2023-04-25T10:43:46;98503.97;;;12.48;63.11
16544;BME280;8384;47.996;7.786;2023-04-25T10:46:19;98504.16;;;11.65;68.08
16544;BME280;8384;47.996;7.786;2023-04-25T10:48:54;98511.50;;;11.54;69.02
16544;BME280;8384;47.996;7.786;2023-04-25T10:53:46;98516.94;;;10.97;72.47
16544;BME280;8384;47.996;7.786;2023-04-25T10:56:17;98475.50;;;10.52;73.54
16544;BME280;8384;47.996;7.786;2023-04-25T10:58:43;98516.91;;;10.92;75.87
16544;BME280;8384;47.996;7.786;2023-04-25T11:01:09;98525.41;;;11.01;73.89
16544;BME280;8384;47.996;7.786;2023-04-25T11:03:40;98521.31;;;11.08;72.76
16544;BME280;8384;47.996;7.786;2023-04-25T11:06:15;98504.66;;;11.20;72.31
16544;BME280;8384;47.996;7.786;2023-04-25T11:08:49;98512.88;;;11.72;69.39
16544;BME280;8384;47.996;7.786;2023-04-25T11:11:16;98520.72;;;12.46;62.01
16544;BME280;8384;47.996;7.786;2023-04-25T11:13:41;98487.28;;;12.49;62.57
16544;BME280;8384;47.996;7.786;2023-04-25T11:16:07;98490.09;;;12.94;59.11
16544;BME280;8384;47.996;7.786;2023-04-25T11:18:33;98498.97;;;12.70;57.70
16544;BME280;8384;47.996;7.786;2023-04-25T11:20:59;98511.56;;;12.71;59.18
16544;BME280;8384;47.996;7.786;2023-04-25T11:23:25;98500.28;;;12.83;58.51
16544;BME280;8384;47.996;7.786;2023-04-25T11:25:51;98489.06;;;12.74;57.38
16544;BME280;8384;47.996;7.786;2023-04-25T11:28:21;98509.72;;;12.56;56.42
16544;BME280;8384;47.996;7.786;2023-04-25T11:30:49;98502.09;;;12.43;58.78
16544;BME280;8384;47.996;7.786;2023-04-25T11:33:16;98495.84;;;12.22;58.37
16544;BME280;8384;47.996;7.786;2023-04-25T11:35:41;98515.31;;;12.15;60.32
16544;BME280;8384;47.996;7.786;2023-04-25T11:38:06;98488.41;;;10.77;65.31
16544;BME280;8384;47.996;7.786;2023-04-25T11:40:32;98510.34;;;10.29;70.91
16544;BME280;8384;47.996;7.786;2023-04-25T11:43:00;98505.72;;;10.35;69.88
16544;BME280;8384;47.996;7.786;2023-04-25T11:45:25;98504.34;;;9.84;71.16
16544;BME280;8384;47.996;7.786;2023-04-25T11:47:51;98495.69;;;9.98;70.17
16544;BME280;8384;47.996;7.786;2023-04-25T11:50:17;98499.63;;;10.17;73.54
16544;BME280;8384;47.996;7.786;2023-04-25T11:52:43;98526.03;;;10.44;76.00
16544;BME280;8384;47.996;7.786;2023-04-25T11:55:12;98523.09;;;10.67;78.60
16544;BME280;8384;47.996;7.786;2023-04-25T11:57:38;98518.22;;;10.74;76.60
16544;BME280;8384;47.996;7.786;2023-04-25T12:00:13;98519.66;;;11.02;72.22
16544;BME280;8384;47.996;7.786;2023-04-25T12:02:57;98485.47;;;11.98;75.71
16544;BME280;8384;47.996;7.786;2023-04-25T12:05:25;98519.06;;;12.55;66.80
16544;BME280;8384;47.996;7.786;2023-04-25T12:07:51;98521.97;;;12.80;65.36
16544;BME280;8384;47.996;7.786;2023-04-25T12:10:18;98519.63;;;13.02;64.39
16544;BME280;8384;47.996;7.786;2023-04-25T12:12:46;98499.09;;;13.00;67.91
16544;BME280;8384;47.996;7.786;2023-04-25T12:15:12;98516.78;;;13.23;65.95
16544;BME280;8384;47.996;7.786;2023-04-25T12:17:40;98495.16;;;13.11;62.54
16544;BME280;8384;47.996;7.786;2023-04-25T12:20:10;98501.28;;;12.98;63.04
16544;BME280;8384;47.996;7.786;2023-04-25T12:22:36;98456.84;;;13.01;69.70
16544;BME280;8384;47.996;7.786;2023-04-25T12:25:02;98509.22;;;13.79;67.10
16544;BME280;8384;47.996;7.786;2023-04-25T12:27:31;98500.88;;;14.19;67.09
16544;BME280;8384;47.996;7.786;2023-04-25T12:29:57;98497.91;;;14.88;62.65
16544;BME280;8384;47.996;7.786;2023-04-25T12:32:22;98499.44;;;15.52;62.61
16544;BME280;8384;47.996;7.786;2023-04-25T12:34:47;98488.09;;;15.01;52.46
16544;BME280;8384;47.996;7.786;2023-04-25T12:37:13;98512.94;;;14.72;59.69
16544;BME280;8384;47.996;7.786;2023-04-25T12:39:38;98513.75;;;15.15;61.62
16544;BME280;8384;47.996;7.786;2023-04-25T12:42:03;98499.91;;;14.82;51.88
16544;BME280;8384;47.996;7.786;2023-04-25T12:44:29;98488.69;;;13.37;57.79
16544;BME280;8384;47.996;7.786;2023-04-25T12:46:54;98508.88;;;12.61;63.15
16544;BME280;8384;47.996;7.786;2023-04-25T12:49:20;98486.59;;;13.23;63.10
16544;BME280;8384;47.996;7.786;2023-04-25T12:51:45;98511.16;;;14.08;58.44
16544;BME280;8384;47.996;7.786;2023-04-25T12:54:11;98518.31;;;13.79;55.65
16544;BME280;8384;47.996;7.786;2023-04-25T12:56:37;98502.84;;;13.89;54.10
16544;BME280;8384;47.996;7.786;2023-04-25T12:59:02;98517.28;;;14.78;53.42
16544;BME280;8384;47.996;7.786;2023-04-25T13:01:28;98514.00;;;14.51;50.57
16544;BME280;8384;47.996;7.786;2023-04-25T13:03:54;98518.81;;;14.40;52.83
16544;BME280;8384;47.996;7.786;2023-04-25T13:06:20;98501.34;;;14.02;53.14
16544;BME280;8384;47.996;7.786;2023-04-25T13:08:45;98500.53;;;14.01;51.77
16544;BME280;8384;47.996;7.786;2023-04-25T13:11:11;98508.28;;;13.64;53.07
16544;BME280;8384;47.996;7.786;2023-04-25T13:13:37;98517.03;;;13.67;52.45